LOAV

Vöslau Airport

Bad Vöslau, Austria
TAF LOAV 200800Z 2009/2018 VRB03KT 9999 BKN015 BECMG 2012/2014 02004KT
Issued Valid From Valid To
Jan-20 @ 08:00 UTC
(3 hours ago)
Jan-20 @ 09:00 UTC
(2 hours ago)
Jan-20 @ 18:00 UTC
(in 7 hours)
Jan-20 @ 09:00 to Jan-20 @ 12:00
TAF LOAV 200800Z 2009/2018 VRB03KT 9999 BKN015
Wind Visibility Clouds
Variable at 3 knots 10,000+ meters
  • Broken at 1,500' AGL
Becoming Jan-20 @ 12:00 to Jan-20 @ 18:00
BECMG 2012/2014 02004KT
Wind Visibility Clouds
20° at 4 knots 10,000+ meters
  • Broken at 1,500' AGL
TAF LOAV 200800Z 2009/2018 VRB03KT 9999 BKN015 BECMG 2012/2014 02004KT
Issued Jan-20 @ 08:00 UTC
(3 hours ago)
Valid From Jan-20 @ 09:00 UTC
(2 hours ago)
Valid To Jan-20 @ 18:00 UTC
(in 7 hours)
Jan-20 @ 09:00 - Jan-20 @ 12:00
Wind Visibility
Variable at 3 knots 10,000+ meters
Clouds
  • Broken at 1,500' AGL
Becoming Jan-20 @ 12:00 - Jan-20 @ 18:00
Wind Visibility
20° at 4 knots 10,000+ meters
Clouds
  • Broken at 1,500' AGL